sensor_id;sensor_type;location;lat;lon;timestamp;pressure;altitude;pressure_sealevel;temperature;humidity
56831;BME280;42713;42.676;23.352;2023-06-10T00:00:11;94399.63;;;20.30;70.82
56831;BME280;42713;42.676;23.352;2023-06-10T00:02:39;94398.06;;;20.20;70.78
56831;BME280;42713;42.676;23.352;2023-06-10T00:05:05;94391.16;;;20.02;70.94
56831;BME280;42713;42.676;23.352;2023-06-10T00:07:33;94397.88;;;19.90;71.04
56831;BME280;42713;42.676;23.352;2023-06-10T00:09:59;94397.00;;;19.72;71.02
56831;BME280;42713;42.676;23.352;2023-06-10T00:12:25;94399.59;;;19.55;72.14
56831;BME280;42713;42.676;23.352;2023-06-10T00:14:50;94397.22;;;19.44;72.26
56831;BME280;42713;42.676;23.352;2023-06-10T00:17:18;94399.09;;;19.44;73.08
56831;BME280;42713;42.676;23.352;2023-06-10T00:19:44;94391.41;;;19.42;73.37
56831;BME280;42713;42.676;23.352;2023-06-10T00:22:12;94391.13;;;19.44;73.27
56831;BME280;42713;42.676;23.352;2023-06-10T00:24:38;94396.94;;;19.55;73.24
56831;BME280;42713;42.676;23.352;2023-06-10T00:27:04;94398.19;;;19.57;72.86
56831;BME280;42713;42.676;23.352;2023-06-10T00:29:32;94393.84;;;19.62;72.99
56831;BME280;42713;42.676;23.352;2023-06-10T00:31:57;94398.53;;;19.65;72.67
56831;BME280;42713;42.676;23.352;2023-06-10T00:34:23;94396.50;;;19.70;72.43
56831;BME280;42713;42.676;23.352;2023-06-10T00:36:50;94402.63;;;19.71;72.15
56831;BME280;42713;42.676;23.352;2023-06-10T00:39:15;94404.69;;;19.74;71.91
56831;BME280;42713;42.676;23.352;2023-06-10T00:41:42;94403.09;;;19.73;71.38
56831;BME280;42713;42.676;23.352;2023-06-10T00:44:07;94396.06;;;19.68;71.72
56831;BME280;42713;42.676;23.352;2023-06-10T00:46:33;94397.75;;;19.64;72.01
56831;BME280;42713;42.676;23.352;2023-06-10T00:49:00;94392.59;;;19.68;71.81
56831;BME280;42713;42.676;23.352;2023-06-10T00:51:26;94396.84;;;19.69;71.56
56831;BME280;42713;42.676;23.352;2023-06-10T00:53:52;94395.88;;;19.65;71.02
56831;BME280;42713;42.676;23.352;2023-06-10T00:56:18;94399.00;;;19.67;71.21
56831;BME280;42713;42.676;23.352;2023-06-10T00:58:44;94396.06;;;19.68;71.09
56831;BME280;42713;42.676;23.352;2023-06-10T01:01:10;94398.41;;;19.70;71.19
56831;BME280;42713;42.676;23.352;2023-06-10T01:03:38;94399.38;;;19.74;71.16
56831;BME280;42713;42.676;23.352;2023-06-10T01:11:40;94401.81;;;19.70;70.56
56831;BME280;42713;42.676;23.352;2023-06-10T01:14:09;94410.59;;;19.71;70.41
56831;BME280;42713;42.676;23.352;2023-06-10T01:16:35;94409.63;;;19.67;70.37
56831;BME280;42713;42.676;23.352;2023-06-10T01:19:02;94411.03;;;19.64;70.23
56831;BME280;42713;42.676;23.352;2023-06-10T01:21:28;94407.63;;;19.64;70.39
56831;BME280;42713;42.676;23.352;2023-06-10T01:23:54;94418.25;;;19.64;70.52
56831;BME280;42713;42.676;23.352;2023-06-10T01:26:24;94417.44;;;19.63;70.56
56831;BME280;42713;42.676;23.352;2023-06-10T01:29:03;94403.38;;;19.63;70.34
56831;BME280;42713;42.676;23.352;2023-06-10T01:31:52;94406.16;;;19.57;70.79
56831;BME280;42713;42.676;23.352;2023-06-10T01:34:21;94406.78;;;19.54;71.14
56831;BME280;42713;42.676;23.352;2023-06-10T01:36:48;94407.69;;;19.50;71.92
56831;BME280;42713;42.676;23.352;2023-06-10T01:39:16;94407.88;;;19.53;71.56
56831;BME280;42713;42.676;23.352;2023-06-10T01:41:42;94403.81;;;19.56;71.43
56831;BME280;42713;42.676;23.352;2023-06-10T01:44:10;94402.09;;;19.51;71.01
56831;BME280;42713;42.676;23.352;2023-06-10T01:46:35;94394.13;;;19.51;71.30
56831;BME280;42713;42.676;23.352;2023-06-10T01:49:01;94400.34;;;19.47;71.54
56831;BME280;42713;42.676;23.352;2023-06-10T01:51:27;94392.22;;;19.43;72.19
56831;BME280;42713;42.676;23.352;2023-06-10T01:53:53;94391.13;;;19.44;72.11
56831;BME280;42713;42.676;23.352;2023-06-10T01:56:19;94391.72;;;19.41;72.24
56831;BME280;42713;42.676;23.352;2023-06-10T01:58:46;94389.06;;;19.41;72.33
56831;BME280;42713;42.676;23.352;2023-06-10T02:01:11;94381.59;;;19.43;72.62
56831;BME280;42713;42.676;23.352;2023-06-10T02:03:37;94382.69;;;19.42;72.55
56831;BME280;42713;42.676;23.352;2023-06-10T02:06:02;94380.97;;;19.46;72.44
56831;BME280;42713;42.676;23.352;2023-06-10T02:08:28;94378.44;;;19.41;73.04
56831;BME280;42713;42.676;23.352;2023-06-10T02:10:53;94382.69;;;19.42;72.83
56831;BME280;42713;42.676;23.352;2023-06-10T02:13:19;94383.63;;;19.46;72.81
56831;BME280;42713;42.676;23.352;2023-06-10T02:15:45;94388.16;;;19.46;73.44
56831;BME280;42713;42.676;23.352;2023-06-10T02:18:11;94382.19;;;19.40;73.55
56831;BME280;42713;42.676;23.352;2023-06-10T02:20:40;94382.69;;;19.42;73.65
56831;BME280;42713;42.676;23.352;2023-06-10T02:23:06;94372.34;;;19.40;74.02
56831;BME280;42713;42.676;23.352;2023-06-10T02:25:31;94373.00;;;19.46;73.74
56831;BME280;42713;42.676;23.352;2023-06-10T02:27:57;94371.91;;;19.47;73.85
56831;BME280;42713;42.676;23.352;2023-06-10T02:30:22;94372.53;;;19.44;73.80
56831;BME280;42713;42.676;23.352;2023-06-10T02:32:48;94374.06;;;19.45;73.74
56831;BME280;42713;42.676;23.352;2023-06-10T02:35:14;94368.00;;;19.44;73.74
56831;BME280;42713;42.676;23.352;2023-06-10T02:37:40;94358.63;;;19.47;73.70
56831;BME280;42713;42.676;23.352;2023-06-10T02:40:07;94369.41;;;19.51;74.01
56831;BME280;42713;42.676;23.352;2023-06-10T02:42:33;94364.91;;;19.51;73.70
56831;BME280;42713;42.676;23.352;2023-06-10T02:44:59;94365.50;;;19.48;74.07
56831;BME280;42713;42.676;23.352;2023-06-10T02:47:26;94368.16;;;19.48;73.48
56831;BME280;42713;42.676;23.352;2023-06-10T02:49:51;94358.34;;;19.49;73.50
56831;BME280;42713;42.676;23.352;2023-06-10T02:52:17;94354.41;;;19.46;73.75
56831;BME280;42713;42.676;23.352;2023-06-10T02:54:42;94351.28;;;19.44;74.25
56831;BME280;42713;42.676;23.352;2023-06-10T02:57:08;94354.72;;;19.44;74.46
56831;BME280;42713;42.676;23.352;2023-06-10T02:59:35;94347.19;;;19.38;74.58
56831;BME280;42713;42.676;23.352;2023-06-10T03:02:01;94350.16;;;19.36;74.98
56831;BME280;42713;42.676;23.352;2023-06-10T03:04:26;94364.09;;;19.42;74.92
56831;BME280;42713;42.676;23.352;2023-06-10T03:06:54;94356.88;;;19.42;75.08
56831;BME280;42713;42.676;23.352;2023-06-10T03:09:20;94358.78;;;19.42;74.86
56831;BME280;42713;42.676;23.352;2023-06-10T03:11:45;94360.50;;;19.47;75.04
56831;BME280;42713;42.676;23.352;2023-06-10T03:14:11;94353.47;;;19.42;75.38
56831;BME280;42713;42.676;23.352;2023-06-10T03:16:36;94360.34;;;19.43;75.44
56831;BME280;42713;42.676;23.352;2023-06-10T03:19:06;94356.59;;;19.44;75.32
56831;BME280;42713;42.676;23.352;2023-06-10T03:21:31;94364.38;;;19.40;75.52
56831;BME280;42713;42.676;23.352;2023-06-10T03:23:57;94365.78;;;19.38;75.55
56831;BME280;42713;42.676;23.352;2023-06-10T03:26:22;94371.09;;;19.38;75.76
56831;BME280;42713;42.676;23.352;2023-06-10T03:28:48;94381.44;;;19.39;75.62
56831;BME280;42713;42.676;23.352;2023-06-10T03:31:14;94381.22;;;19.36;75.93
56831;BME280;42713;42.676;23.352;2023-06-10T03:33:42;94375.72;;;19.23;76.42
56831;BME280;42713;42.676;23.352;2023-06-10T03:36:07;94390.69;;;19.19;77.13
56831;BME280;42713;42.676;23.352;2023-06-10T03:38:33;94390.84;;;19.14;77.89
56831;BME280;42713;42.676;23.352;2023-06-10T03:40:58;94395.84;;;18.93;78.81
56831;BME280;42713;42.676;23.352;2023-06-10T03:43:24;94390.28;;;18.80;79.36
56831;BME280;42713;42.676;23.352;2023-06-10T03:45:49;94391.72;;;18.87;80.01
56831;BME280;42713;42.676;23.352;2023-06-10T03:48:15;94391.41;;;18.88;79.92
56831;BME280;42713;42.676;23.352;2023-06-10T03:50:40;94389.75;;;18.92;79.80
56831;BME280;42713;42.676;23.352;2023-06-10T03:53:06;94389.16;;;18.95;79.64
56831;BME280;42713;42.676;23.352;2023-06-10T03:55:31;94396.03;;;18.96;79.30
56831;BME280;42713;42.676;23.352;2023-06-10T03:57:57;94387.94;;;19.02;79.53
56831;BME280;42713;42.676;23.352;2023-06-10T04:00:23;94384.69;;;19.05;79.28
56831;BME280;42713;42.676;23.352;2023-06-10T04:02:48;94389.69;;;19.06;78.98
56831;BME280;42713;42.676;23.352;2023-06-10T04:05:18;94390.94;;;19.09;78.68
56831;BME280;42713;42.676;23.352;2023-06-10T04:07:44;94395.16;;;19.10;77.97
56831;BME280;42713;42.676;23.352;2023-06-10T04:10:12;94385.31;;;19.10;78.28
56831;BME280;42713;42.676;23.352;2023-06-10T04:12:38;94387.88;;;19.16;77.90
56831;BME280;42713;42.676;23.352;2023-06-10T04:15:04;94389.44;;;19.17;77.52
56831;BME280;42713;42.676;23.352;2023-06-10T04:17:30;94396.00;;;19.19;77.13
56831;BME280;42713;42.676;23.352;2023-06-10T04:19:56;94397.41;;;19.17;76.78
56831;BME280;42713;42.676;23.352;2023-06-10T04:22:21;94399.56;;;19.15;76.52
56831;BME280;42713;42.676;23.352;2023-06-10T04:24:48;94403.78;;;19.16;76.57
56831;BME280;42713;42.676;23.352;2023-06-10T04:27:13;94391.13;;;19.12;76.51
56831;BME280;42713;42.676;23.352;2023-06-10T04:29:39;94394.75;;;19.17;76.06
56831;BME280;42713;42.676;23.352;2023-06-10T04:32:05;94398.47;;;19.16;76.28
56831;BME280;42713;42.676;23.352;2023-06-10T04:34:33;94403.78;;;19.16;76.25
56831;BME280;42713;42.676;23.352;2023-06-10T04:36:58;94399.56;;;19.15;76.52
56831;BME280;42713;42.676;23.352;2023-06-10T04:39:24;94399.25;;;19.16;76.34
56831;BME280;42713;42.676;23.352;2023-06-10T04:41:49;94398.06;;;19.22;76.60
56831;BME280;42713;42.676;23.352;2023-06-10T04:44:15;94398.53;;;19.24;76.69
56831;BME280;42713;42.676;23.352;2023-06-10T04:46:40;94392.31;;;19.29;76.79
56831;BME280;42713;42.676;23.352;2023-06-10T04:49:06;94390.75;;;19.28;76.95
56831;BME280;42713;42.676;23.352;2023-06-10T04:51:31;94387.47;;;19.31;76.84
56831;BME280;42713;42.676;23.352;2023-06-10T04:53:58;94396.22;;;19.32;75.87
56831;BME280;42713;42.676;23.352;2023-06-10T04:56:23;94392.00;;;19.31;75.63
56831;BME280;42713;42.676;23.352;2023-06-10T04:58:49;94391.09;;;19.35;75.25
56831;BME280;42713;42.676;23.352;2023-06-10T05:01:15;94391.25;;;19.39;75.61
56831;BME280;42713;42.676;23.352;2023-06-10T05:03:40;94394.88;;;19.43;75.70
56831;BME280;42713;42.676;23.352;2023-06-10T05:06:05;94390.81;;;19.46;75.90
56831;BME280;42713;42.676;23.352;2023-06-10T05:08:31;94389.88;;;19.50;76.54
56831;BME280;42713;42.676;23.352;2023-06-10T05:10:56;94395.97;;;19.51;76.58
56831;BME280;42713;42.676;23.352;2023-06-10T05:13:23;94388.50;;;19.53;76.60
56831;BME280;42713;42.676;23.352;2023-06-10T05:15:49;94396.34;;;19.58;75.24
56831;BME280;42713;42.676;23.352;2023-06-10T05:18:14;94386.97;;;19.60;75.21
56831;BME280;42713;42.676;23.352;2023-06-10T05:20:39;94381.34;;;19.62;75.90
56831;BME280;42713;42.676;23.352;2023-06-10T05:23:05;94387.28;;;19.68;76.29
56831;BME280;42713;42.676;23.352;2023-06-10T05:25:32;94388.84;;;19.69;75.65
56831;BME280;42713;42.676;23.352;2023-06-10T05:27:58;94389.19;;;19.67;75.31
56831;BME280;42713;42.676;23.352;2023-06-10T05:30:24;94388.09;;;19.68;75.59
56831;BME280;42713;42.676;23.352;2023-06-10T05:32:51;94390.09;;;19.71;75.18
56831;BME280;42713;42.676;23.352;2023-06-10T05:35:18;94395.13;;;19.73;75.53
56831;BME280;42713;42.676;23.352;2023-06-10T05:37:43;94392.47;;;19.73;75.01
56831;BME280;42713;42.676;23.352;2023-06-10T05:40:09;94390.44;;;19.70;75.47
56831;BME280;42713;42.676;23.352;2023-06-10T05:42:35;94394.34;;;19.72;75.66
56831;BME280;42713;42.676;23.352;2023-06-10T05:45:01;94395.59;;;19.75;75.60
56831;BME280;42713;42.676;23.352;2023-06-10T05:47:27;94396.88;;;19.78;75.76
56831;BME280;42713;42.676;23.352;2023-06-10T05:49:53;94402.81;;;19.83;75.47
56831;BME280;42713;42.676;23.352;2023-06-10T05:52:18;94402.22;;;19.86;75.69
56831;BME280;42713;42.676;23.352;2023-06-10T05:54:44;94399.13;;;19.93;76.40
56831;BME280;42713;42.676;23.352;2023-06-10T05:57:09;94396.00;;;20.00;76.66
56831;BME280;42713;42.676;23.352;2023-06-10T05:59:36;94396.00;;;20.09;76.78
56831;BME280;42713;42.676;23.352;2023-06-10T06:02:01;94404.31;;;20.16;76.35
56831;BME280;42713;42.676;23.352;2023-06-10T06:04:27;94407.31;;;20.23;74.12
56831;BME280;42713;42.676;23.352;2023-06-10T06:06:52;94412.16;;;20.21;73.84
56831;BME280;42713;42.676;23.352;2023-06-10T06:09:18;94404.97;;;20.21;73.69
56831;BME280;42713;42.676;23.352;2023-06-10T06:11:43;94406.69;;;20.26;72.80
56831;BME280;42713;42.676;23.352;2023-06-10T06:14:09;94407.63;;;20.21;72.60
56831;BME280;42713;42.676;23.352;2023-06-10T06:16:34;94402.28;;;20.13;71.79
56831;BME280;42713;42.676;23.352;2023-06-10T06:19:00;94401.19;;;20.14;72.83
56831;BME280;42713;42.676;23.352;2023-06-10T06:21:25;94407.13;;;20.11;71.50
56831;BME280;42713;42.676;23.352;2023-06-10T06:23:51;94399.31;;;20.14;71.99
56831;BME280;42713;42.676;23.352;2023-06-10T06:26:16;94400.75;;;20.20;72.61
56831;BME280;42713;42.676;23.352;2023-06-10T06:28:42;94406.53;;;20.23;72.03
56831;BME280;42713;42.676;23.352;2023-06-10T06:31:07;94406.97;;;20.25;71.37
56831;BME280;42713;42.676;23.352;2023-06-10T06:33:33;94409.34;;;20.26;71.02
56831;BME280;42713;42.676;23.352;2023-06-10T06:35:58;94401.81;;;20.28;71.14
56831;BME280;42713;42.676;23.352;2023-06-10T06:38:25;94405.28;;;20.29;71.50
56831;BME280;42713;42.676;23.352;2023-06-10T06:40:51;94398.38;;;20.28;70.86
56831;BME280;42713;42.676;23.352;2023-06-10T06:43:16;94401.66;;;20.25;70.81
56831;BME280;42713;42.676;23.352;2023-06-10T06:45:44;94399.47;;;20.27;70.57
56831;BME280;42713;42.676;23.352;2023-06-10T06:48:10;94397.94;;;20.34;69.75
56831;BME280;42713;42.676;23.352;2023-06-10T06:50:36;94394.78;;;20.32;69.84
56831;BME280;42713;42.676;23.352;2023-06-10T06:53:02;94387.13;;;20.31;69.73
56831;BME280;42713;42.676;23.352;2023-06-10T06:55:28;94391.38;;;20.32;70.62
56831;BME280;42713;42.676;23.352;2023-06-10T06:57:53;94390.88;;;20.30;70.59
56831;BME280;42713;42.676;23.352;2023-06-10T07:00:19;94392.75;;;20.38;70.39
56831;BME280;42713;42.676;23.352;2023-06-10T07:02:45;94385.91;;;20.46;70.48
56831;BME280;42713;42.676;23.352;2023-06-10T07:05:10;94391.66;;;20.57;70.42
56831;BME280;42713;42.676;23.352;2023-06-10T07:07:36;94382.75;;;20.61;69.56
56831;BME280;42713;42.676;23.352;2023-06-10T07:10:01;94392.31;;;20.45;68.58
56831;BME280;42713;42.676;23.352;2023-06-10T07:12:27;94384.31;;;20.53;67.85
56831;BME280;42713;42.676;23.352;2023-06-10T07:14:52;94381.81;;;20.66;69.22
56831;BME280;42713;42.676;23.352;2023-06-10T07:17:18;94379.31;;;20.78;67.51
56831;BME280;42713;42.676;23.352;2023-06-10T07:19:45;94378.69;;;20.81;66.14
56831;BME280;42713;42.676;23.352;2023-06-10T07:22:10;94375.53;;;20.71;66.12
56831;BME280;42713;42.676;23.352;2023-06-10T07:24:36;94375.25;;;20.81;66.91
56831;BME280;42713;42.676;23.352;2023-06-10T07:27:01;94369.25;;;20.93;65.99
56831;BME280;42713;42.676;23.352;2023-06-10T07:29:27;94376.94;;;20.94;65.48
56831;BME280;42713;42.676;23.352;2023-06-10T07:31:52;94380.09;;;20.96;63.72
56831;BME280;42713;42.676;23.352;2023-06-10T07:34:19;94371.91;;;21.02;65.11
56831;BME280;42713;42.676;23.352;2023-06-10T07:36:44;94378.31;;;21.09;63.95
56831;BME280;42713;42.676;23.352;2023-06-10T07:39:10;94370.16;;;21.14;62.03
56831;BME280;42713;42.676;23.352;2023-06-10T07:41:37;94376.41;;;21.19;60.59
56831;BME280;42713;42.676;23.352;2023-06-10T07:44:02;94376.09;;;21.11;61.30
56831;BME280;42713;42.676;23.352;2023-06-10T07:46:28;94375.47;;;21.14;62.49
56831;BME280;42713;42.676;23.352;2023-06-10T07:48:54;94378.75;;;21.20;61.83
56831;BME280;42713;42.676;23.352;2023-06-10T07:51:20;94372.47;;;21.25;62.29
56831;BME280;42713;42.676;23.352;2023-06-10T07:53:46;94370.88;;;21.33;62.25
56831;BME280;42713;42.676;23.352;2023-06-10T07:56:11;94378.09;;;21.32;58.37
56831;BME280;42713;42.676;23.352;2023-06-10T07:58:37;94374.03;;;21.26;56.91
56831;BME280;42713;42.676;23.352;2023-06-10T08:01:02;94363.91;;;21.10;56.55
56831;BME280;42713;42.676;23.352;2023-06-10T08:03:28;94370.78;;;21.20;56.24
56831;BME280;42713;42.676;23.352;2023-06-10T08:05:53;94368.09;;;21.29;56.83
56831;BME280;42713;42.676;23.352;2023-06-10T08:08:19;94372.75;;;21.41;57.05
56831;BME280;42713;42.676;23.352;2023-06-10T08:10:44;94372.38;;;21.51;56.80
56831;BME280;42713;42.676;23.352;2023-06-10T08:13:11;94372.38;;;21.60;55.42
56831;BME280;42713;42.676;23.352;2023-06-10T08:15:36;94368.44;;;21.66;54.51
56831;BME280;42713;42.676;23.352;2023-06-10T08:18:02;94364.59;;;21.76;54.45
56831;BME280;42713;42.676;23.352;2023-06-10T08:20:28;94364.56;;;21.85;53.83
56831;BME280;42713;42.676;23.352;2023-06-10T08:22:54;94357.28;;;21.94;53.19
56831;BME280;42713;42.676;23.352;2023-06-10T08:25:19;94354.44;;;21.99;54.36
56831;BME280;42713;42.676;23.352;2023-06-10T08:27:47;94352.50;;;22.08;54.38
56831;BME280;42713;42.676;23.352;2023-06-10T08:30:13;94350.09;;;22.16;54.95
56831;BME280;42713;42.676;23.352;2023-06-10T08:32:38;94351.78;;;22.20;55.88
56831;BME280;42713;42.676;23.352;2023-06-10T08:35:04;94350.16;;;22.28;55.42
56831;BME280;42713;42.676;23.352;2023-06-10T08:37:29;94351.84;;;22.33;53.16
56831;BME280;42713;42.676;23.352;2023-06-10T08:39:55;94336.63;;;22.33;52.98
56831;BME280;42713;42.676;23.352;2023-06-10T08:42:33;94343.31;;;22.39;53.39
56831;BME280;42713;42.676;23.352;2023-06-10T08:45:01;94336.44;;;22.38;51.49
56831;BME280;42713;42.676;23.352;2023-06-10T08:47:30;94333.25;;;22.45;51.65
56831;BME280;42713;42.676;23.352;2023-06-10T08:50:02;94336.25;;;22.44;51.47
56831;BME280;42713;42.676;23.352;2023-06-10T08:52:35;94337.81;;;22.45;50.92
56831;BME280;42713;42.676;23.352;2023-06-10T08:55:10;94332.84;;;22.34;49.82
56831;BME280;42713;42.676;23.352;2023-06-10T08:57:37;94323.63;;;22.32;49.04
56831;BME280;42713;42.676;23.352;2023-06-10T09:00:03;94327.38;;;22.10;49.89
56831;BME280;42713;42.676;23.352;2023-06-10T09:02:31;94328.03;;;22.06;51.40
56831;BME280;42713;42.676;23.352;2023-06-10T09:05:00;94331.19;;;22.08;50.52
56831;BME280;42713;42.676;23.352;2023-06-10T09:07:26;94319.53;;;22.13;50.00
56831;BME280;42713;42.676;23.352;2023-06-10T09:09:53;94314.97;;;22.14;48.76
56831;BME280;42713;42.676;23.352;2023-06-10T09:12:19;94317.56;;;22.22;49.13
56831;BME280;42713;42.676;23.352;2023-06-10T09:14:45;94315.28;;;22.33;50.84
56831;BME280;42713;42.676;23.352;2023-06-10T09:17:11;94307.81;;;22.48;50.84
56831;BME280;42713;42.676;23.352;2023-06-10T09:19:38;94306.41;;;22.63;49.72
56831;BME280;42713;42.676;23.352;2023-06-10T09:22:04;94306.72;;;22.61;48.33
56831;BME280;42713;42.676;23.352;2023-06-10T09:24:30;94306.66;;;22.70;48.52
56831;BME280;42713;42.676;23.352;2023-06-10T09:27:06;94309.91;;;22.88;48.38
56831;BME280;42713;42.676;23.352;2023-06-10T09:29:45;94305.41;;;23.01;49.38
56831;BME280;42713;42.676;23.352;2023-06-10T09:32:10;94303.06;;;23.12;48.42
56831;BME280;42713;42.676;23.352;2023-06-10T09:34:36;94308.00;;;23.22;49.37
56831;BME280;42713;42.676;23.352;2023-06-10T09:37:02;94295.56;;;23.26;50.28
56831;BME280;42713;42.676;23.352;2023-06-10T09:39:27;94300.75;;;23.35;50.79
56831;BME280;42713;42.676;23.352;2023-06-10T09:41:53;94297.09;;;23.27;46.62
56831;BME280;42713;42.676;23.352;2023-06-10T09:44:20;94293.75;;;23.30;47.80
56831;BME280;42713;42.676;23.352;2023-06-10T09:46:48;94280.19;;;23.36;49.33
56831;BME280;42713;42.676;23.352;2023-06-10T09:49:18;94289.19;;;23.43;49.29
56831;BME280;42713;42.676;23.352;2023-06-10T09:51:51;94293.22;;;23.50;49.67
56831;BME280;42713;42.676;23.352;2023-06-10T09:54:17;94287.41;;;23.60;49.60
56831;BME280;42713;42.676;23.352;2023-06-10T09:56:47;94286.06;;;23.66;49.73
56831;BME280;42713;42.676;23.352;2023-06-10T09:59:13;94275.91;;;23.72;49.12
56831;BME280;42713;42.676;23.352;2023-06-10T10:01:38;94271.56;;;23.80;48.80
56831;BME280;42713;42.676;23.352;2023-06-10T10:04:04;94268.44;;;23.77;47.61
56831;BME280;42713;42.676;23.352;2023-06-10T10:06:30;94271.66;;;23.83;48.17
56831;BME280;42713;42.676;23.352;2023-06-10T10:08:55;94272.41;;;23.84;48.09
56831;BME280;42713;42.676;23.352;2023-06-10T10:11:22;94272.09;;;23.85;48.57
56831;BME280;42713;42.676;23.352;2023-06-10T10:13:49;94274.31;;;23.96;48.19
56831;BME280;42713;42.676;23.352;2023-06-10T10:16:17;94260.91;;;24.08;47.60
56831;BME280;42713;42.676;23.352;2023-06-10T10:18:51;94259.31;;;24.19;46.85
56831;BME280;42713;42.676;23.352;2023-06-10T10:21:22;94260.19;;;24.23;45.94
56831;BME280;42713;42.676;23.352;2023-06-10T10:24:12;94260.47;;;24.34;47.35
56831;BME280;42713;42.676;23.352;2023-06-10T10:26:40;94260.34;;;24.43;45.88
56831;BME280;42713;42.676;23.352;2023-06-10T10:29:33;94253.25;;;24.51;44.05
56831;BME280;42713;42.676;23.352;2023-06-10T10:32:01;94248.44;;;24.56;44.53
56831;BME280;42713;42.676;23.352;2023-06-10T10:34:56;94248.41;;;24.69;44.41
56831;BME280;42713;42.676;23.352;2023-06-10T10:37:26;94252.19;;;24.68;45.79
56831;BME280;42713;42.676;23.352;2023-06-10T10:39:52;94256.44;;;24.69;46.20
56831;BME280;42713;42.676;23.352;2023-06-10T10:42:18;94251.59;;;24.75;44.96
56831;BME280;42713;42.676;23.352;2023-06-10T10:44:47;94239.50;;;24.81;44.40
56831;BME280;42713;42.676;23.352;2023-06-10T10:47:15;94239.34;;;24.90;43.85
56831;BME280;42713;42.676;23.352;2023-06-10T10:49:43;94241.16;;;25.01;43.29
56831;BME280;42713;42.676;23.352;2023-06-10T10:52:11;94236.81;;;25.13;45.11
56831;BME280;42713;42.676;23.352;2023-06-10T10:54:44;94234.75;;;25.22;45.71
56831;BME280;42713;42.676;23.352;2023-06-10T11:02:44;94232.50;;;25.24;44.71
56831;BME280;42713;42.676;23.352;2023-06-10T11:05:15;94229.13;;;25.27;43.74
56831;BME280;42713;42.676;23.352;2023-06-10T11:07:52;94224.59;;;25.31;43.78
56831;BME280;42713;42.676;23.352;2023-06-10T11:10:29;94222.88;;;25.39;44.17
56831;BME280;42713;42.676;23.352;2023-06-10T11:12:54;94214.63;;;25.64;43.52
56831;BME280;42713;42.676;23.352;2023-06-10T11:15:25;94211.81;;;25.96;44.02
56831;BME280;42713;42.676;23.352;2023-06-10T11:18:11;94196.34;;;26.29;43.60
56831;BME280;42713;42.676;23.352;2023-06-10T11:28:38;94203.25;;;26.96;42.33
56831;BME280;42713;42.676;23.352;2023-06-10T11:31:03;94192.88;;;26.94;41.32
56831;BME280;42713;42.676;23.352;2023-06-10T11:33:29;94174.84;;;26.95;40.82
56831;BME280;42713;42.676;23.352;2023-06-10T11:35:56;94183.31;;;26.97;41.33
56831;BME280;42713;42.676;23.352;2023-06-10T11:38:21;94183.09;;;26.82;42.22
56831;BME280;42713;42.676;23.352;2023-06-10T11:40:51;94181.34;;;26.70;41.94
56831;BME280;42713;42.676;23.352;2023-06-10T11:43:17;94181.22;;;26.63;40.97
56831;BME280;42713;42.676;23.352;2023-06-10T11:45:43;94179.06;;;26.49;41.16
56831;BME280;42713;42.676;23.352;2023-06-10T11:48:09;94172.47;;;26.43;41.48
56831;BME280;42713;42.676;23.352;2023-06-10T11:50:36;94177.88;;;26.47;43.05
56831;BME280;42713;42.676;23.352;2023-06-10T11:53:02;94178.97;;;26.42;42.26
56831;BME280;42713;42.676;23.352;2023-06-10T11:58:22;94185.09;;;26.42;41.63
56831;BME280;42713;42.676;23.352;2023-06-10T12:00:56;94176.50;;;26.56;41.42
56831;BME280;42713;42.676;23.352;2023-06-10T12:03:23;94174.53;;;26.77;41.52
56831;BME280;42713;42.676;23.352;2023-06-10T12:06:03;94170.34;;;27.02;39.04
56831;BME280;42713;42.676;23.352;2023-06-10T12:08:29;94164.19;;;27.29;39.64
56831;BME280;42713;42.676;23.352;2023-06-10T12:10:56;94156.28;;;27.40;37.34
56831;BME280;42713;42.676;23.352;2023-06-10T12:13:22;94159.50;;;27.49;36.90
56831;BME280;42713;42.676;23.352;2023-06-10T12:15:49;94162.25;;;27.53;37.16
56831;BME280;42713;42.676;23.352;2023-06-10T12:18:21;94160.31;;;27.53;38.40
56831;BME280;42713;42.676;23.352;2023-06-10T12:20:47;94155.78;;;27.57;39.85
56831;BME280;42713;42.676;23.352;2023-06-10T12:23:14;94158.06;;;27.55;40.92
56831;BME280;42713;42.676;23.352;2023-06-10T12:25:49;94159.91;;;27.51;36.93
56831;BME280;42713;42.676;23.352;2023-06-10T12:28:16;94158.69;;;27.45;38.02
56831;BME280;42713;42.676;23.352;2023-06-10T12:30:42;94147.06;;;27.41;38.98
56831;BME280;42713;42.676;23.352;2023-06-10T12:33:19;94153.19;;;27.38;37.79
56831;BME280;42713;42.676;23.352;2023-06-10T12:35:52;94151.22;;;27.34;38.64
56831;BME280;42713;42.676;23.352;2023-06-10T12:38:25;94145.38;;;27.29;38.57
56831;BME280;42713;42.676;23.352;2023-06-10T12:40:54;94143.41;;;27.26;38.00
56831;BME280;42713;42.676;23.352;2023-06-10T12:43:25;94144.50;;;27.21;36.80
56831;BME280;42713;42.676;23.352;2023-06-10T12:45:51;94140.25;;;27.20;37.56
56831;BME280;42713;42.676;23.352;2023-06-10T12:48:22;94137.94;;;27.18;38.90
56831;BME280;42713;42.676;23.352;2023-06-10T12:50:56;94135.97;;;27.15;35.44
56831;BME280;42713;42.676;23.352;2023-06-10T12:53:23;94139.41;;;27.12;34.79
56831;BME280;42713;42.676;23.352;2023-06-10T12:55:49;94135.00;;;27.00;35.83
56831;BME280;42713;42.676;23.352;2023-06-10T12:58:15;94143.63;;;26.63;35.35
56831;BME280;42713;42.676;23.352;2023-06-10T13:00:41;94146.63;;;26.58;33.51
56831;BME280;42713;42.676;23.352;2023-06-10T13:03:08;94145.06;;;26.57;33.86
56831;BME280;42713;42.676;23.352;2023-06-10T13:05:38;94148.28;;;26.43;35.56
56831;BME280;42713;42.676;23.352;2023-06-10T13:08:08;94146.00;;;26.22;33.64
56831;BME280;42713;42.676;23.352;2023-06-10T13:10:35;94147.97;;;26.05;33.32